Time;durP1;ratioP1;P1;durP2;ratioP2;P2;SDS_P1;SDS_P2;PMS_P1;PMS_P2;Temp;Humidity;BMP_temperature;BMP_pressure;BME280_temperature;BME280_humidity;BME280_pressure;Samples;Min_cycle;Max_cycle;Signal;HPM_P1;HPM_P2
2024/03/11 00:02:23;;;;;;;9.65;8.48;;;;;;;;;;5093881;28;20380;-75
2024/03/11 00:04:48;;;;;;;10.30;8.55;;;;;;;;;;5094177;28;20028;-73
2024/03/11 00:07:15;;;;;;;9.85;8.85;;;;;;;;;;5094144;28;20024;-74
2024/03/11 00:09:48;;;;;;;9.45;8.50;;;;;;;;;;5093773;28;20464;-74
2024/03/11 00:12:17;;;;;;;9.50;8.40;;;;;;;;;;5092576;28;20496;-74
2024/03/11 00:14:47;;;;;;;9.80;8.23;;;;;;;;;;5098030;28;20028;-74
2024/03/11 00:17:12;;;;;;;10.23;8.20;;;;;;;;;;5099026;28;20127;-73
2024/03/11 00:19:37;;;;;;;10.50;8.32;;;;;;;;;;5061805;28;20028;-72
2024/03/11 00:22:03;;;;;;;10.13;8.40;;;;;;;;;;5093664;28;20024;-71
2024/03/11 00:24:29;;;;;;;8.85;7.93;;;;;;;;;;5093623;28;20051;-71
2024/03/11 00:26:56;;;;;;;9.82;8.63;;;;;;;;;;5091875;28;20024;-71
2024/03/11 00:29:21;;;;;;;9.77;7.75;;;;;;;;;;5092135;28;20020;-71
2024/03/11 00:31:46;;;;;;;8.98;8.07;;;;;;;;;;5092516;28;20515;-72
2024/03/11 00:34:15;;;;;;;9.07;8.18;;;;;;;;;;5092534;28;20063;-72
2024/03/11 00:36:40;;;;;;;9.77;8.77;;;;;;;;;;5091231;28;20035;-71
2024/03/11 00:39:08;;;;;;;9.57;8.57;;;;;;;;;;5074578;28;20040;-65
2024/03/11 00:41:34;;;;;;;9.52;7.70;;;;;;;;;;5092676;28;20020;-66
2024/03/11 00:43:59;;;;;;;8.93;8.02;;;;;;;;;;5092982;28;20093;-66
2024/03/11 00:46:24;;;;;;;8.70;7.80;;;;;;;;;;5093689;28;20047;-66
2024/03/11 00:48:50;;;;;;;10.05;9.05;;;;;;;;;;5093392;28;20055;-65
2024/03/11 00:51:15;;;;;;;9.98;8.77;;;;;;;;;;5094043;28;20052;-66
2024/03/11 00:53:41;;;;;;;9.65;7.22;;;;;;;;;;5093148;28;20031;-66
2024/03/11 00:56:07;;;;;;;10.82;8.13;;;;;;;;;;5093425;28;20114;-70
2024/03/11 00:58:36;;;;;;;10.00;9.00;;;;;;;;;;5058507;28;20579;-70
2024/03/11 01:01:02;;;;;;;8.85;7.90;;;;;;;;;;5093604;28;20494;-72
2024/03/11 01:03:29;;;;;;;9.30;8.40;;;;;;;;;;5092590;28;20036;-72
2024/03/11 01:05:56;;;;;;;7.85;7.05;;;;;;;;;;5079329;28;20036;-73
2024/03/11 01:08:22;;;;;;;8.55;7.65;;;;;;;;;;5097459;28;20476;-73
2024/03/11 01:10:48;;;;;;;9.60;8.07;;;;;;;;;;5097523;28;20035;-73
2024/03/11 01:13:13;;;;;;;8.23;7.43;;;;;;;;;;5097002;28;20078;-72
2024/03/11 01:15:39;;;;;;;9.10;8.20;;;;;;;;;;5097262;28;20489;-72
2024/03/11 01:18:04;;;;;;;8.65;7.80;;;;;;;;;;5097211;28;20028;-72
2024/03/11 01:20:29;;;;;;;9.15;7.53;;;;;;;;;;5097076;28;20051;-74
2024/03/11 01:22:55;;;;;;;8.25;7.45;;;;;;;;;;5096871;28;20021;-75
2024/03/11 01:25:20;;;;;;;8.35;7.47;;;;;;;;;;5097106;28;20388;-75
2024/03/11 01:27:46;;;;;;;9.63;7.70;;;;;;;;;;5079219;28;20137;-72
2024/03/11 01:30:12;;;;;;;8.13;7.28;;;;;;;;;;5096930;28;20036;-72
2024/03/11 01:32:39;;;;;;;8.93;8.02;;;;;;;;;;5061759;28;20042;-64
2024/03/11 01:35:04;;;;;;;8.73;7.93;;;;;;;;;;5095290;28;20451;-68
2024/03/11 01:37:31;;;;;;;8.95;8.05;;;;;;;;;;5096891;28;20060;-68
2024/03/11 01:39:56;;;;;;;8.70;7.82;;;;;;;;;;5096947;28;20062;-67
2024/03/11 01:42:23;;;;;;;8.60;7.80;;;;;;;;;;5078376;28;20476;-68
2024/03/11 01:44:49;;;;;;;8.85;7.95;;;;;;;;;;5097033;28;20088;-68
2024/03/11 01:47:15;;;;;;;8.68;7.13;;;;;;;;;;5078385;28;20401;-67
2024/03/11 01:49:42;;;;;;;7.25;6.55;;;;;;;;;;5078767;28;20389;-68
2024/03/11 01:52:10;;;;;;;9.23;8.13;;;;;;;;;;5096586;28;20031;-68
2024/03/11 01:54:36;;;;;;;8.68;7.78;;;;;;;;;;5096297;28;20403;-68
2024/03/11 01:57:03;;;;;;;8.57;7.70;;;;;;;;;;5096267;28;20036;-66
2024/03/11 02:02:13;;;;;;;8.82;8.02;;;;;;;;;;5088290;22;354460;-68
2024/03/11 02:04:44;;;;;;;9.85;7.88;;;;;;;;;;5096345;28;20536;-68
2024/03/11 02:07:13;;;;;;;11.70;7.32;;;;;;;;;;5096050;28;20039;-68
2024/03/11 02:10:20;;;;;;;8.77;7.70;;;;;;;;;;5100231;22;20365;-75
2024/03/11 02:16:47;;;;;;;8.55;7.57;;;;;;;;;;5109360;22;20059;-72
2024/03/11 02:19:14;;;;;;;8.30;7.30;;;;;;;;;;5096154;28;20085;-72
2024/03/11 02:21:45;;;;;;;8.30;6.53;;;;;;;;;;5096559;28;20036;-73
2024/03/11 02:24:15;;;;;;;7.20;6.50;;;;;;;;;;5095721;28;20537;-76
2024/03/11 02:26:42;;;;;;;8.20;7.25;;;;;;;;;;5095626;28;20027;-76
2024/03/11 02:29:07;;;;;;;7.47;6.78;;;;;;;;;;5096258;28;20028;-76
2024/03/11 02:31:33;;;;;;;7.20;6.50;;;;;;;;;;5095744;28;20085;-78
2024/03/11 02:33:59;;;;;;;9.40;7.43;;;;;;;;;;5096251;28;20024;-76
2024/03/11 02:36:24;;;;;;;8.23;7.43;;;;;;;;;;5095631;28;20491;-75
2024/03/11 02:38:49;;;;;;;7.70;6.90;;;;;;;;;;5095877;28;20035;-73
2024/03/11 02:41:15;;;;;;;7.80;6.75;;;;;;;;;;5095652;28;20395;-73
2024/03/11 02:43:41;;;;;;;8.13;7.32;;;;;;;;;;5095299;28;20055;-73
2024/03/11 02:46:06;;;;;;;7.85;7.05;;;;;;;;;;5095214;28;20028;-72
2024/03/11 02:48:32;;;;;;;7.57;6.88;;;;;;;;;;5077100;28;20038;-71
2024/03/11 02:50:57;;;;;;;7.72;7.03;;;;;;;;;;5077369;28;20020;-72
2024/03/11 02:53:23;;;;;;;7.13;6.53;;;;;;;;;;5077020;28;20543;-72
2024/03/11 02:55:50;;;;;;;6.80;6.20;;;;;;;;;;5095104;28;20024;-72
2024/03/11 02:58:15;;;;;;;7.32;6.70;;;;;;;;;;5095014;28;20067;-72
2024/03/11 03:00:40;;;;;;;7.57;6.88;;;;;;;;;;5094983;28;20051;-71
2024/03/11 03:03:06;;;;;;;6.65;6.05;;;;;;;;;;5095280;28;20534;-71
2024/03/11 03:05:32;;;;;;;8.23;7.53;;;;;;;;;;5094858;28;20487;-72
2024/03/11 03:07:57;;;;;;;7.63;6.60;;;;;;;;;;5076638;28;20020;-67
2024/03/11 03:10:22;;;;;;;7.82;7.03;;;;;;;;;;5077034;28;20479;-66
2024/03/11 03:12:48;;;;;;;7.70;6.85;;;;;;;;;;5094701;28;20028;-67
2024/03/11 03:15:14;;;;;;;7.53;6.82;;;;;;;;;;5094962;28;20012;-69
2024/03/11 03:17:40;;;;;;;7.30;6.60;;;;;;;;;;5094571;28;20036;-69
2024/03/11 03:20:09;;;;;;;7.38;6.57;;;;;;;;;;5076383;28;20036;-67
2024/03/11 03:22:35;;;;;;;7.05;6.43;;;;;;;;;;5076372;28;20028;-67
2024/03/11 03:25:00;;;;;;;7.68;6.70;;;;;;;;;;5094511;28;20081;-67
2024/03/11 03:27:26;;;;;;;6.20;5.57;;;;;;;;;;5076395;28;20488;-67
2024/03/11 03:29:51;;;;;;;7.40;6.60;;;;;;;;;;5076252;28;20178;-68
2024/03/11 03:32:19;;;;;;;7.32;6.35;;;;;;;;;;5094387;28;20043;-67
2024/03/11 03:34:44;;;;;;;8.10;7.30;;;;;;;;;;5094615;28;20353;-66
2024/03/11 03:37:10;;;;;;;6.80;6.25;;;;;;;;;;5076116;28;20031;-66
2024/03/11 03:39:36;;;;;;;8.00;7.15;;;;;;;;;;5094179;28;20035;-67
2024/03/11 03:42:02;;;;;;;7.95;7.15;;;;;;;;;;5094543;28;20376;-66
2024/03/11 03:44:27;;;;;;;6.78;6.18;;;;;;;;;;5094456;28;20028;-72
2024/03/11 03:46:55;;;;;;;7.95;7.15;;;;;;;;;;5094477;28;20069;-72
2024/03/11 03:49:21;;;;;;;7.65;6.95;;;;;;;;;;5076011;28;20046;-72
2024/03/11 03:51:47;;;;;;;7.35;6.65;;;;;;;;;;5094424;28;20422;-72
2024/03/11 03:54:13;;;;;;;7.63;6.35;;;;;;;;;;5094072;28;20502;-72
2024/03/11 03:56:38;;;;;;;7.07;6.38;;;;;;;;;;5075833;28;20021;-73
2024/03/11 03:59:05;;;;;;;7.45;6.78;;;;;;;;;;5093898;28;20472;-67
2024/03/11 04:01:31;;;;;;;6.97;6.35;;;;;;;;;;5076199;28;20028;-72
2024/03/11 04:03:56;;;;;;;6.80;6.20;;;;;;;;;;5094220;28;20062;-72
2024/03/11 04:06:21;;;;;;;7.90;7.10;;;;;;;;;;5094167;28;20035;-71
2024/03/11 04:08:48;;;;;;;7.03;6.32;;;;;;;;;;5076129;28;20031;-71
2024/03/11 04:11:13;;;;;;;7.53;6.82;;;;;;;;;;5093845;28;20028;-72
2024/03/11 04:13:38;;;;;;;7.10;6.40;;;;;;;;;;5075873;28;20090;-69
2024/03/11 04:16:04;;;;;;;6.82;6.15;;;;;;;;;;5093844;28;20020;-69
2024/03/11 04:18:30;;;;;;;7.68;7.00;;;;;;;;;;5150898;22;20056;-73
2024/03/11 04:20:55;;;;;;;7.38;6.53;;;;;;;;;;5092835;28;20024;-74
2024/03/11 04:23:26;;;;;;;7.53;6.43;;;;;;;;;;5093976;28;20035;-74
2024/03/11 04:25:56;;;;;;;7.72;7.03;;;;;;;;;;5075544;28;20551;-74
2024/03/11 04:28:22;;;;;;;8.13;7.32;;;;;;;;;;5093968;28;20051;-76
2024/03/11 04:31:02;;;;;;;7.75;6.95;;;;;;;;;;5086755;22;20757;-77
2024/03/11 04:33:33;;;;;;;7.25;6.65;;;;;;;;;;5012030;28;20050;-70
2024/03/11 04:35:59;;;;;;;8.48;7.32;;;;;;;;;;5013635;28;20034;-70
2024/03/11 04:38:26;;;;;;;7.40;6.63;;;;;;;;;;5015737;28;20064;-70
2024/03/11 04:40:52;;;;;;;7.47;6.78;;;;;;;;;;5016858;28;20045;-74
2024/03/11 04:43:18;;;;;;;8.02;6.85;;;;;;;;;;5017956;28;20028;-74
2024/03/11 04:45:43;;;;;;;7.88;6.80;;;;;;;;;;5017603;28;20033;-75
2024/03/11 04:48:09;;;;;;;7.93;7.10;;;;;;;;;;5016148;28;20018;-73
2024/03/11 04:50:37;;;;;;;6.55;5.93;;;;;;;;;;5016186;28;20103;-70
2024/03/11 04:53:06;;;;;;;6.90;6.20;;;;;;;;;;5015411;28;20036;-69
2024/03/11 04:55:32;;;;;;;7.50;6.80;;;;;;;;;;4999116;28;20116;-71
2024/03/11 04:57:57;;;;;;;8.25;6.97;;;;;;;;;;5015232;28;20298;-72
2024/03/11 05:00:26;;;;;;;8.68;7.07;;;;;;;;;;5016252;28;20029;-74
2024/03/11 05:03:04;;;;;;;6.70;6.10;;;;;;;;;;5016125;28;20030;-76
2024/03/11 05:05:35;;;;;;;7.28;6.63;;;;;;;;;;5015515;28;20026;-77
2024/03/11 05:08:01;;;;;;;8.05;7.25;;;;;;;;;;5017260;28;20022;-75
2024/03/11 05:10:27;;;;;;;8.45;7.03;;;;;;;;;;5017266;28;20470;-79
2024/03/11 05:12:52;;;;;;;7.35;6.65;;;;;;;;;;5016082;28;20022;-80
2024/03/11 05:15:17;;;;;;;7.25;6.47;;;;;;;;;;5015610;28;20037;-78
2024/03/11 05:17:43;;;;;;;7.35;6.65;;;;;;;;;;4981816;28;20471;-79
2024/03/11 05:20:12;;;;;;;8.07;6.95;;;;;;;;;;5000171;28;20040;-74
2024/03/11 05:22:41;;;;;;;8.13;7.32;;;;;;;;;;5022373;28;20076;-80
2024/03/11 05:25:08;;;;;;;6.90;6.28;;;;;;;;;;5002266;28;20494;-73
2024/03/11 05:27:34;;;;;;;6.80;5.82;;;;;;;;;;4997406;28;20164;-73
2024/03/11 05:29:59;;;;;;;6.68;6.07;;;;;;;;;;4997447;28;20129;-73
2024/03/11 05:32:25;;;;;;;8.05;6.78;;;;;;;;;;5008139;28;20121;-72
2024/03/11 05:34:50;;;;;;;8.35;6.70;;;;;;;;;;5017607;28;20038;-78
2024/03/11 05:37:18;;;;;;;6.45;5.85;;;;;;;;;;5018228;28;20025;-73
2024/03/11 05:39:43;;;;;;;6.75;6.03;;;;;;;;;;5016742;28;20041;-70
2024/03/11 05:42:09;;;;;;;6.90;6.30;;;;;;;;;;5016894;28;20030;-70
2024/03/11 05:44:34;;;;;;;6.70;6.10;;;;;;;;;;5017095;28;20064;-75
2024/03/11 05:47:00;;;;;;;8.05;6.90;;;;;;;;;;5016593;28;20022;-70
2024/03/11 05:49:28;;;;;;;6.80;6.13;;;;;;;;;;5016109;28;20532;-70
2024/03/11 05:51:55;;;;;;;8.48;6.22;;;;;;;;;;5031768;28;20080;-70
2024/03/11 05:54:21;;;;;;;13.90;10.02;;;;;;;;;;5016607;28;20064;-71
2024/03/11 05:56:59;;;;;;;17.50;11.05;;;;;;;;;;5016332;28;20034;-71
2024/03/11 05:59:24;;;;;;;16.30;12.40;;;;;;;;;;5016735;28;20521;-71
2024/03/11 06:01:50;;;;;;;12.48;10.10;;;;;;;;;;5015032;28;20102;-71
2024/03/11 06:04:16;;;;;;;14.15;8.70;;;;;;;;;;5016149;28;20465;-71
2024/03/11 06:06:45;;;;;;;13.60;8.10;;;;;;;;;;5016245;28;20536;-71
2024/03/11 06:09:14;;;;;;;24.40;13.98;;;;;;;;;;5016789;28;20026;-71
2024/03/11 06:11:49;;;;;;;56.72;29.15;;;;;;;;;;5016310;28;20385;-73
2024/03/11 06:14:15;;;;;;;15.60;12.05;;;;;;;;;;5015941;28;20057;-70
2024/03/11 06:16:42;;;;;;;13.85;10.43;;;;;;;;;;5016290;28;20504;-67
2024/03/11 06:19:08;;;;;;;8.90;7.40;;;;;;;;;;5014726;28;20406;-76
2024/03/11 06:21:34;;;;;;;8.68;7.70;;;;;;;;;;5015962;28;20034;-76
2024/03/11 06:24:00;;;;;;;8.88;7.40;;;;;;;;;;5016106;28;20018;-76
2024/03/11 06:26:31;;;;;;;15.57;13.15;;;;;;;;;;5014561;28;20030;-77
2024/03/11 06:28:56;;;;;;;;;;;;;;;;;;4998887;28;20038;-76
2024/03/11 06:31:22;;;;;;;9.30;6.60;;;;;;;;;;5025023;28;19909;-76
2024/03/11 06:33:49;;;;;;;7.85;7.10;;;;;;;;;;5017925;28;20037;-70
2024/03/11 06:36:16;;;;;;;9.52;8.30;;;;;;;;;;5017635;28;20087;-69
2024/03/11 06:38:42;;;;;;;9.27;7.00;;;;;;;;;;5016669;28;20029;-69
2024/03/11 06:41:08;;;;;;;7.93;7.13;;;;;;;;;;5034442;28;20362;-69
2024/03/11 06:43:33;;;;;;;12.10;8.27;;;;;;;;;;5000608;28;20060;-69
2024/03/11 06:45:58;;;;;;;7.35;6.65;;;;;;;;;;5034291;28;20030;-69
2024/03/11 06:48:24;;;;;;;15.35;11.85;;;;;;;;;;5033474;28;20022;-69
2024/03/11 06:50:51;;;;;;;7.63;6.90;;;;;;;;;;5033568;28;20033;-69
2024/03/11 06:53:16;;;;;;;12.25;10.02;;;;;;;;;;5033024;28;20029;-69
2024/03/11 06:55:42;;;;;;;8.75;7.93;;;;;;;;;;4998957;28;20450;-69
2024/03/11 06:58:08;;;;;;;9.90;7.57;;;;;;;;;;5033188;28;20048;-69
2024/03/11 07:00:34;;;;;;;14.73;13.23;;;;;;;;;;5032478;28;20057;-69
2024/03/11 07:02:59;;;;;;;8.55;6.90;;;;;;;;;;5032812;28;20057;-69
2024/03/11 07:05:27;;;;;;;17.15;15.32;;;;;;;;;;5033229;28;20025;-69
2024/03/11 07:07:55;;;;;;;9.95;8.35;;;;;;;;;;5034568;28;20109;-69
2024/03/11 07:10:20;;;;;;;15.30;13.73;;;;;;;;;;5035180;28;20040;-69
2024/03/11 07:12:46;;;;;;;13.75;11.55;;;;;;;;;;5034629;28;20033;-69
2024/03/11 07:15:11;;;;;;;8.27;7.50;;;;;;;;;;5034558;28;20481;-69
2024/03/11 07:17:37;;;;;;;7.90;7.10;;;;;;;;;;5034541;28;20061;-69
2024/03/11 07:20:08;;;;;;;8.75;7.95;;;;;;;;;;5034663;28;20105;-69
2024/03/11 07:22:35;;;;;;;7.80;7.03;;;;;;;;;;5035117;28;20030;-69
2024/03/11 07:25:03;;;;;;;8.00;7.20;;;;;;;;;;5034466;28;20025;-69
2024/03/11 07:27:29;;;;;;;7.88;7.18;;;;;;;;;;5018257;28;20037;-70
2024/03/11 07:29:56;;;;;;;20.83;14.63;;;;;;;;;;5036647;28;20056;-69
2024/03/11 07:32:22;;;;;;;11.65;10.45;;;;;;;;;;5016801;28;20041;-69
2024/03/11 07:34:50;;;;;;;18.67;17.00;;;;;;;;;;5034233;28;20452;-69
2024/03/11 07:37:16;;;;;;;44.33;39.85;;;;;;;;;;5016626;28;20061;-69
2024/03/11 07:39:41;;;;;;;36.85;33.22;;;;;;;;;;5016456;28;20441;-69
2024/03/11 07:42:07;;;;;;;16.55;14.85;;;;;;;;;;5034104;28;20029;-69
2024/03/11 07:44:33;;;;;;;20.92;18.95;;;;;;;;;;5034350;28;20053;-69
2024/03/11 07:46:59;;;;;;;26.30;23.75;;;;;;;;;;5034066;28;20496;-69
2024/03/11 07:49:25;;;;;;;13.23;11.98;;;;;;;;;;5016682;28;20091;-69
2024/03/11 07:51:50;;;;;;;12.75;11.40;;;;;;;;;;5034248;28;20104;-69
2024/03/11 07:54:15;;;;;;;8.43;7.63;;;;;;;;;;5034178;28;20026;-69
2024/03/11 07:56:40;;;;;;;7.70;6.95;;;;;;;;;;5033863;28;20033;-69
2024/03/11 07:59:06;;;;;;;7.03;6.32;;;;;;;;;;5034332;28;20026;-69
2024/03/11 08:01:32;;;;;;;7.10;6.40;;;;;;;;;;5016088;28;20036;-69
2024/03/11 08:03:57;;;;;;;8.07;7.35;;;;;;;;;;4999781;28;20057;-69
2024/03/11 08:06:23;;;;;;;7.00;6.30;;;;;;;;;;5033769;28;20021;-69
2024/03/11 08:08:52;;;;;;;7.07;6.38;;;;;;;;;;5033723;28;20045;-69
2024/03/11 08:11:19;;;;;;;8.27;6.47;;;;;;;;;;5034230;28;20056;-69
2024/03/11 08:13:44;;;;;;;7.05;6.40;;;;;;;;;;5016138;28;20087;-69
2024/03/11 08:16:11;;;;;;;7.43;6.72;;;;;;;;;;5032377;28;20026;-69
2024/03/11 08:18:42;;;;;;;6.68;6.00;;;;;;;;;;5033530;28;20131;-69
2024/03/11 08:21:10;;;;;;;8.02;7.13;;;;;;;;;;5016223;28;20032;-69
2024/03/11 08:23:40;;;;;;;6.65;6.05;;;;;;;;;;5016207;28;20013;-75
2024/03/11 08:26:09;;;;;;;6.53;5.85;;;;;;;;;;5033539;28;20420;-76
2024/03/11 08:28:38;;;;;;;8.18;7.00;;;;;;;;;;5033467;28;20029;-76
2024/03/11 08:31:07;;;;;;;8.07;7.28;;;;;;;;;;5034021;28;20544;-76
2024/03/11 08:33:34;;;;;;;9.27;7.68;;;;;;;;;;5015875;28;20041;-76
2024/03/11 08:36:00;;;;;;;7.70;6.47;;;;;;;;;;5033704;28;20033;-76
2024/03/11 08:38:28;;;;;;;7.30;6.60;;;;;;;;;;5033591;28;20037;-76
2024/03/11 08:40:53;;;;;;;9.00;8.10;;;;;;;;;;5015768;28;20030;-76
2024/03/11 08:43:19;;;;;;;32.92;29.67;;;;;;;;;;5016041;28;20037;-76
2024/03/11 08:45:45;;;;;;;12.68;10.15;;;;;;;;;;5015707;28;20037;-76
2024/03/11 08:48:13;;;;;;;18.02;13.95;;;;;;;;;;5033296;28;20059;-76
2024/03/11 08:50:39;;;;;;;78.15;48.92;;;;;;;;;;5016022;28;20451;-76
2024/03/11 08:53:06;;;;;;;77.75;53.67;;;;;;;;;;5033286;28;20052;-76
2024/03/11 08:55:34;;;;;;;49.17;30.70;;;;;;;;;;5000074;28;20057;-76
2024/03/11 08:58:05;;;;;;;16.42;13.25;;;;;;;;;;5051824;23;20053;-69
2024/03/11 09:00:31;;;;;;;14.55;11.63;;;;;;;;;;5071781;28;20028;-69
2024/03/11 09:02:56;;;;;;;9.50;8.70;;;;;;;;;;5055126;28;20133;-69
2024/03/11 09:05:22;;;;;;;8.07;7.28;;;;;;;;;;5073357;28;20032;-76
2024/03/11 09:07:51;;;;;;;9.73;8.73;;;;;;;;;;5102966;22;20091;-75
2024/03/11 09:10:17;;;;;;;9.63;8.00;;;;;;;;;;5093560;28;20032;-76
2024/03/11 09:12:42;;;;;;;8.98;7.78;;;;;;;;;;5093255;28;20495;-76
2024/03/11 09:15:23;;;;;;;11.10;9.73;;;;;;;;;;5093162;28;20020;-76
2024/03/11 09:17:52;;;;;;;12.43;8.40;;;;;;;;;;5093457;28;20111;-76
2024/03/11 09:20:19;;;;;;;8.65;7.85;;;;;;;;;;5093027;28;20372;-76
2024/03/11 09:22:49;;;;;;;12.02;9.48;;;;;;;;;;5091871;28;20073;-76
2024/03/11 09:25:18;;;;;;;13.57;9.02;;;;;;;;;;5094919;28;20019;-76
2024/03/11 09:27:48;;;;;;;14.25;9.75;;;;;;;;;;5096839;28;20024;-76
2024/03/11 09:30:14;;;;;;;12.43;9.60;;;;;;;;;;5096754;28;20384;-76
2024/03/11 09:32:43;;;;;;;13.30;11.25;;;;;;;;;;5096708;28;20035;-76
2024/03/11 09:35:09;;;;;;;14.00;9.50;;;;;;;;;;5096977;28;20479;-76
2024/03/11 09:37:35;;;;;;;15.32;9.50;;;;;;;;;;5096686;28;20063;-76
2024/03/11 09:40:01;;;;;;;14.70;10.25;;;;;;;;;;5097097;28;20119;-76
2024/03/11 09:42:30;;;;;;;13.05;9.25;;;;;;;;;;5078396;28;20123;-76
2024/03/11 09:44:56;;;;;;;10.63;9.43;;;;;;;;;;5096624;28;20031;-76
2024/03/11 09:47:22;;;;;;;11.23;9.32;;;;;;;;;;5097065;28;20032;-76
2024/03/11 09:49:48;;;;;;;21.75;15.55;;;;;;;;;;5096442;28;20040;-76
2024/03/11 09:52:15;;;;;;;16.15;10.90;;;;;;;;;;5096436;28;20050;-76
2024/03/11 09:54:41;;;;;;;14.35;11.05;;;;;;;;;;5096872;28;20024;-76
2024/03/11 09:57:06;;;;;;;17.08;11.57;;;;;;;;;;5096572;28;20046;-76
2024/03/11 09:59:32;;;;;;;15.52;10.98;;;;;;;;;;5095824;28;20063;-76
2024/03/11 10:01:59;;;;;;;16.38;10.55;;;;;;;;;;5096170;28;20024;-76
2024/03/11 10:04:26;;;;;;;13.02;9.80;;;;;;;;;;5099745;28;20093;-76
2024/03/11 10:06:56;;;;;;;11.60;9.48;;;;;;;;;;5099611;28;20028;-75
2024/03/11 10:09:22;;;;;;;17.60;11.80;;;;;;;;;;5097525;28;20387;-75
2024/03/11 10:12:07;;;;;;;13.00;10.15;;;;;;;;;;5096000;28;20391;-76
2024/03/11 10:14:34;;;;;;;15.57;10.85;;;;;;;;;;5077785;28;20478;-76
2024/03/11 10:17:20;;;;;;;13.75;10.48;;;;;;;;;;5077779;28;20023;-76
2024/03/11 10:19:56;;;;;;;15.57;11.73;;;;;;;;;;5096039;28;20039;-76
2024/03/11 10:22:24;;;;;;;13.52;10.00;;;;;;;;;;5096376;28;20457;-76
2024/03/11 10:24:56;;;;;;;16.48;11.63;;;;;;;;;;5096034;28;20027;-76
2024/03/11 10:27:32;;;;;;;17.20;10.40;;;;;;;;;;5095703;28;20024;-76
2024/03/11 10:30:16;;;;;;;14.73;9.77;;;;;;;;;;5095912;28;20032;-76
2024/03/11 10:32:45;;;;;;;13.43;10.52;;;;;;;;;;5095846;28;20040;-76
2024/03/11 10:35:20;;;;;;;12.55;10.38;;;;;;;;;;5094104;28;20454;-76
2024/03/11 10:37:45;;;;;;;12.82;9.90;;;;;;;;;;5095536;28;20391;-76
2024/03/11 10:40:17;;;;;;;14.00;9.88;;;;;;;;;;5077147;28;20028;-76
2024/03/11 10:42:53;;;;;;;21.30;13.82;;;;;;;;;;5077223;28;20373;-76
2024/03/11 10:45:35;;;;;;;17.48;11.77;;;;;;;;;;5095619;28;20028;-76
2024/03/11 10:48:01;;;;;;;22.73;15.85;;;;;;;;;;5095577;28;20024;-76
2024/03/11 10:50:33;;;;;;;14.60;12.80;;;;;;;;;;5094009;28;20024;-76
2024/03/11 10:52:59;;;;;;;12.02;10.10;;;;;;;;;;5095742;28;20061;-76
2024/03/11 10:55:33;;;;;;;15.18;10.82;;;;;;;;;;5095210;28;20122;-69
2024/03/11 10:58:03;;;;;;;20.17;12.77;;;;;;;;;;5095376;28;20032;-69
2024/03/11 11:00:34;;;;;;;15.30;11.10;;;;;;;;;;5093690;28;20433;-70
2024/03/11 11:02:59;;;;;;;18.35;14.90;;;;;;;;;;5095063;28;20395;-70
2024/03/11 11:05:32;;;;;;;25.38;17.77;;;;;;;;;;5094989;28;20032;-76
2024/03/11 11:07:59;;;;;;;31.83;23.50;;;;;;;;;;5094738;28;20130;-76
2024/03/11 11:10:29;;;;;;;13.00;11.32;;;;;;;;;;5076757;28;20024;-76
2024/03/11 11:12:54;;;;;;;;;;;;;;;;;;5077079;28;20487;-70
2024/03/11 11:15:20;;;;;;;14.20;10.90;;;;;;;;;;5094741;28;19939;-70
2024/03/11 11:17:47;;;;;;;11.60;10.30;;;;;;;;;;5093429;28;20266;-70
2024/03/11 11:23:02;;;;;;;15.40;10.38;;;;;;;;;;5094590;28;20408;-70
2024/03/11 11:25:37;;;;;;;13.30;11.05;;;;;;;;;;5094901;28;20068;-70
2024/03/11 11:28:03;;;;;;;11.68;10.38;;;;;;;;;;5093370;28;20417;-70
2024/03/11 11:30:28;;;;;;;13.93;10.63;;;;;;;;;;5076267;28;20111;-70
2024/03/11 11:32:54;;;;;;;10.30;8.65;;;;;;;;;;5095019;28;20036;-70
2024/03/11 11:35:37;;;;;;;15.63;10.55;;;;;;;;;;5094413;28;20103;-70
2024/03/11 11:38:21;;;;;;;15.75;10.63;;;;;;;;;;5094632;28;20060;-70
2024/03/11 11:40:46;;;;;;;15.18;10.73;;;;;;;;;;5094606;28;20040;-70
2024/03/11 11:43:21;;;;;;;10.32;9.20;;;;;;;;;;5076191;28;20031;-70
2024/03/11 11:45:48;;;;;;;13.13;9.85;;;;;;;;;;5094515;28;20035;-70
2024/03/11 11:48:15;;;;;;;10.65;9.48;;;;;;;;;;5058871;28;20372;-70
2024/03/11 11:50:41;;;;;;;12.23;9.43;;;;;;;;;;5094178;28;20027;-70
2024/03/11 11:53:06;;;;;;;12.10;10.50;;;;;;;;;;5094350;28;20036;-70
2024/03/11 11:55:34;;;;;;;13.23;10.43;;;;;;;;;;5094345;28;20069;-70
2024/03/11 11:58:07;;;;;;;12.27;8.85;;;;;;;;;;5094010;28;20059;-70
2024/03/11 12:00:42;;;;;;;11.18;8.95;;;;;;;;;;5094210;28;20115;-70
2024/03/11 12:03:27;;;;;;;12.30;8.90;;;;;;;;;;5094219;28;20042;-70
2024/03/11 12:06:20;;;;;;;12.88;10.32;;;;;;;;;;5075891;28;20064;-70
2024/03/11 12:08:47;;;;;;;12.23;9.68;;;;;;;;;;5093281;28;20081;-70
2024/03/11 12:11:19;;;;;;;13.10;10.38;;;;;;;;;;5093887;28;20024;-70
2024/03/11 12:13:54;;;;;;;11.48;8.60;;;;;;;;;;5094097;28;20092;-70
2024/03/11 12:16:23;;;;;;;11.43;9.20;;;;;;;;;;5094028;28;20020;-70
2024/03/11 12:19:02;;;;;;;12.45;10.02;;;;;;;;;;5075555;28;20072;-70
2024/03/11 12:21:28;;;;;;;13.00;10.10;;;;;;;;;;5094024;28;20116;-70
2024/03/11 12:23:54;;;;;;;11.95;10.10;;;;;;;;;;5075607;28;20499;-70
2024/03/11 12:26:20;;;;;;;13.43;10.00;;;;;;;;;;5093643;28;20024;-70
2024/03/11 12:29:02;;;;;;;14.48;9.57;;;;;;;;;;5075986;28;20081;-70
2024/03/11 12:31:32;;;;;;;12.45;9.38;;;;;;;;;;5093937;28;20518;-70
2024/03/11 12:34:00;;;;;;;11.43;9.43;;;;;;;;;;5093907;28;20038;-70
2024/03/11 12:36:26;;;;;;;12.75;9.10;;;;;;;;;;5075628;28;20032;-70
2024/03/11 12:38:52;;;;;;;13.43;9.60;;;;;;;;;;5093785;28;20036;-70
2024/03/11 12:41:38;;;;;;;10.70;8.50;;;;;;;;;;5093561;28;20429;-70
2024/03/11 12:44:10;;;;;;;12.02;9.10;;;;;;;;;;5093432;28;20047;-70
2024/03/11 12:46:36;;;;;;;11.13;9.60;;;;;;;;;;5093755;28;20464;-70
2024/03/11 12:49:04;;;;;;;11.10;7.88;;;;;;;;;;5093424;28;20038;-70
2024/03/11 12:51:29;;;;;;;12.82;10.07;;;;;;;;;;5093420;28;20468;-70
2024/03/11 12:54:08;;;;;;;15.82;11.07;;;;;;;;;;5093425;28;20039;-70
2024/03/11 12:56:33;;;;;;;14.25;9.45;;;;;;;;;;5093964;28;20043;-76
2024/03/11 12:59:03;;;;;;;13.90;9.75;;;;;;;;;;5093600;28;20016;-76
2024/03/11 13:01:29;;;;;;;16.30;11.02;;;;;;;;;;5097328;28;20436;-76
2024/03/11 13:03:56;;;;;;;16.27;11.00;;;;;;;;;;5096166;28;20101;-77
2024/03/11 13:06:22;;;;;;;13.60;10.52;;;;;;;;;;5078902;28;20031;-76
2024/03/11 13:08:49;;;;;;;14.63;10.40;;;;;;;;;;5096126;28;20036;-76
2024/03/11 13:11:15;;;;;;;13.30;9.38;;;;;;;;;;5097205;28;20032;-77
2024/03/11 13:13:42;;;;;;;17.95;11.98;;;;;;;;;;5096059;28;20028;-76
2024/03/11 13:16:09;;;;;;;12.90;9.05;;;;;;;;;;5078903;28;20384;-76
2024/03/11 13:18:41;;;;;;;20.83;10.77;;;;;;;;;;5098197;28;20453;-77
2024/03/11 13:21:09;;;;;;;14.68;10.38;;;;;;;;;;5082153;28;20066;-77
2024/03/11 13:23:37;;;;;;;14.43;11.50;;;;;;;;;;5083339;28;20024;-78
2024/03/11 13:26:06;;;;;;;16.20;11.02;;;;;;;;;;5097807;28;20024;-76
2024/03/11 13:28:33;;;;;;;14.52;11.77;;;;;;;;;;5096882;28;20103;-76
2024/03/11 13:30:59;;;;;;;19.63;13.55;;;;;;;;;;5078623;28;20521;-77
2024/03/11 13:33:25;;;;;;;19.55;13.45;;;;;;;;;;5078828;28;20032;-76
2024/03/11 13:35:50;;;;;;;20.15;13.23;;;;;;;;;;5078565;28;20027;-77
2024/03/11 13:38:15;;;;;;;20.45;14.30;;;;;;;;;;5096654;28;20088;-76
2024/03/11 13:40:41;;;;;;;19.77;14.80;;;;;;;;;;5097149;28;20024;-76
2024/03/11 13:43:11;;;;;;;18.48;13.85;;;;;;;;;;5096649;28;20581;-76
2024/03/11 13:45:46;;;;;;;23.73;16.63;;;;;;;;;;5095289;28;20468;-76
2024/03/11 13:48:11;;;;;;;14.48;10.68;;;;;;;;;;5078323;28;20093;-76
2024/03/11 13:50:38;;;;;;;18.52;13.60;;;;;;;;;;5078379;28;20103;-76
2024/03/11 13:53:07;;;;;;;15.20;10.65;;;;;;;;;;5096677;28;20085;-76
2024/03/11 13:55:32;;;;;;;19.88;15.95;;;;;;;;;;5096633;28;20031;-76
2024/03/11 13:57:58;;;;;;;20.40;14.40;;;;;;;;;;5096321;28;20055;-76
2024/03/11 14:00:28;;;;;;;18.92;13.68;;;;;;;;;;5096171;28;20028;-76
2024/03/11 14:02:56;;;;;;;16.40;12.50;;;;;;;;;;5078091;28;20039;-76
2024/03/11 14:05:24;;;;;;;18.25;14.38;;;;;;;;;;5096451;28;20032;-76
2024/03/11 14:07:50;;;;;;;24.50;16.13;;;;;;;;;;5096074;28;20133;-76
2024/03/11 14:10:15;;;;;;;20.23;16.35;;;;;;;;;;5095957;28;20032;-76
2024/03/11 14:12:42;;;;;;;20.23;13.73;;;;;;;;;;5096298;28;20059;-76
2024/03/11 14:15:10;;;;;;;18.83;13.57;;;;;;;;;;5095595;28;20031;-76
2024/03/11 14:17:39;;;;;;;17.92;14.68;;;;;;;;;;5096236;28;20082;-76
2024/03/11 14:20:07;;;;;;;18.80;13.57;;;;;;;;;;5096740;28;20032;-77
2024/03/11 14:22:32;;;;;;;27.15;19.65;;;;;;;;;;5095901;28;20035;-76
2024/03/11 14:24:58;;;;;;;22.05;15.43;;;;;;;;;;5096371;28;20456;-76
2024/03/11 14:27:27;;;;;;;23.23;14.15;;;;;;;;;;5096232;28;20016;-72
2024/03/11 14:29:53;;;;;;;21.73;14.75;;;;;;;;;;5095698;28;20028;-72
2024/03/11 14:32:18;;;;;;;15.02;13.30;;;;;;;;;;5095907;28;20023;-72
2024/03/11 14:34:46;;;;;;;20.23;15.60;;;;;;;;;;5095850;28;20036;-72
2024/03/11 14:37:17;;;;;;;20.27;14.98;;;;;;;;;;5077425;28;20062;-72
2024/03/11 14:39:42;;;;;;;17.58;13.82;;;;;;;;;;5095379;28;20046;-72
2024/03/11 14:42:11;;;;;;;24.67;16.67;;;;;;;;;;5087772;28;20473;-72
2024/03/11 14:44:36;;;;;;;19.90;15.10;;;;;;;;;;5094090;28;20032;-72
2024/03/11 14:47:02;;;;;;;19.38;14.23;;;;;;;;;;5095159;28;20095;-72